Terminal Aerodrome Forecast
Issued by NWS

Home | Current Version | Previous Version | Text Only | Print | Product List | Glossary On
Versions: 1 2 3 4 5 6 7 8 9 10 11 12 13 14
000
FTUS42 TJSJ 280500
TAFNCM
TAF
TNCM 280520Z 2806/2906 07003KT P6SM FEW020
     FM280900 09002KT P6SM VCSH FEW018 SCT030
     FM281400 13009KT P6SM FEW022
     FM282230 07005KT P6SM FEW019=

USA.gov is the U.S. government's official web portal to all federal, state and local government web resources and services.